Weather at Thiva Aeropark

Public forecast

Using degrees Celsius for public forecast. Weather courtesy of forecast.io.

Closest aviation weather report (METAR) to Thiva Aeropark

Closest report is Tanagra Air Base, 14.6 nm (27.1 km) E. Retrieved 2021/06/23 07:50 UTC (14 minutes ago):

LGTG 230750Z 05004KT CAVOK 32/18 Q1014 BLU

Closest aviation forecast (TAF) to Thiva Aeropark

Closest forecast is Elefsis Airport, 23.4 nm (43.4 km) SE. Retrieved 2021/06/23 06:15 UTC (2 hours ago):

TAF LGEL 230500Z 2306/2406 VRB03KT 9999 FEW025 TEMPO 2309/2316 18010KT